createdAt,value
2019-03-22T00:01:40.566Z,6.70
2019-03-22T00:04:10.900Z,6.70
2019-03-22T00:06:42.290Z,6.60
2019-03-22T00:09:12.645Z,6.60
2019-03-22T00:11:42.985Z,6.50
2019-03-22T00:14:14.118Z,6.50
2019-03-22T00:16:44.837Z,6.50
2019-03-22T00:19:15.501Z,6.40
2019-03-22T00:21:45.840Z,6.50
2019-03-22T00:24:16.687Z,6.50
2019-03-22T00:26:47.030Z,6.30
2019-03-22T00:29:17.389Z,6.30
2019-03-22T00:31:47.777Z,6.40
2019-03-22T00:34:18.118Z,6.40
2019-03-22T00:36:48.460Z,6.50
2019-03-22T00:39:18.843Z,6.60
2019-03-22T00:41:49.872Z,6.70
2019-03-22T00:44:20.505Z,6.70
2019-03-22T00:46:51.161Z,6.80
2019-03-22T00:49:21.863Z,6.90
2019-03-22T00:51:52.208Z,7.00
2019-03-22T00:54:23.237Z,7.10
2019-03-22T00:56:54.303Z,7.20
2019-03-22T00:59:24.669Z,7.20
2019-03-22T01:01:55.629Z,7.30
2019-03-22T01:04:25.995Z,7.40
2019-03-22T01:06:56.718Z,7.50
2019-03-22T01:09:27.104Z,7.60
2019-03-22T01:11:57.875Z,7.70
2019-03-22T01:14:28.377Z,7.70
2019-03-22T01:16:59.663Z,7.80
2019-03-22T01:19:30.468Z,7.80
2019-03-22T01:22:01.133Z,7.80
2019-03-22T01:24:31.859Z,7.80
2019-03-22T01:27:02.238Z,7.90
2019-03-22T01:29:33.109Z,8.00
2019-03-22T01:32:03.572Z,8.10
2019-03-22T01:34:34.306Z,8.10
2019-03-22T01:37:04.687Z,8.10
2019-03-22T01:39:35.051Z,8.20
2019-03-22T01:42:05.447Z,8.20
2019-03-22T01:44:36.064Z,8.20
2019-03-22T01:47:06.431Z,8.20
2019-03-22T01:49:37.176Z,8.20
2019-03-22T01:52:07.542Z,8.20
2019-03-22T01:54:38.762Z,8.30
2019-03-22T01:57:09.372Z,8.30
2019-03-22T01:59:39.722Z,8.20
2019-03-22T02:02:10.070Z,8.20
2019-03-22T02:04:40.885Z,8.20
2019-03-22T02:07:11.499Z,8.20
2019-03-22T02:09:41.848Z,8.20
2019-03-22T02:12:12.598Z,8.30
2019-03-22T02:14:43.726Z,8.30
2019-03-22T02:17:14.081Z,8.30
2019-03-22T02:19:44.419Z,8.40
2019-03-22T02:22:15.107Z,8.50
2019-03-22T02:24:46.139Z,8.50
2019-03-22T02:27:16.508Z,8.40
2019-03-22T02:29:46.870Z,8.50
2019-03-22T02:32:17.247Z,8.40
2019-03-22T02:34:47.603Z,8.40
2019-03-22T02:37:18.328Z,8.50
2019-03-22T02:39:48.689Z,8.50
2019-03-22T02:42:19.376Z,8.50
2019-03-22T02:44:49.909Z,8.50
2019-03-22T02:47:20.290Z,8.30
2019-03-22T02:49:50.685Z,8.30
2019-03-22T02:52:21.728Z,8.40
2019-03-22T02:54:52.111Z,8.40
2019-03-22T02:57:22.739Z,8.50
2019-03-22T02:59:53.148Z,8.50
2019-03-22T03:02:23.513Z,8.50
2019-03-22T03:04:54.240Z,8.50
2019-03-22T03:07:24.573Z,8.50
2019-03-22T03:09:55.317Z,8.60
2019-03-22T03:12:26.077Z,8.60
2019-03-22T03:14:56.442Z,8.60
2019-03-22T03:17:27.242Z,8.60
2019-03-22T03:19:57.972Z,8.50
2019-03-22T03:22:29.096Z,8.50
2019-03-22T03:24:59.802Z,8.50
2019-03-22T03:27:30.785Z,8.60
2019-03-22T03:30:01.164Z,8.60
2019-03-22T03:32:31.807Z,8.60
2019-03-22T03:35:02.514Z,8.70
2019-03-22T03:37:33.322Z,8.70
2019-03-22T03:40:10.203Z,8.80
2019-03-22T03:42:40.883Z,8.80
2019-03-22T03:45:36.181Z,8.90
2019-03-22T03:48:10.556Z,8.90
2019-03-22T03:50:41.278Z,8.90
2019-03-22T03:53:11.637Z,8.90
2019-03-22T03:55:41.975Z,8.90
2019-03-22T03:58:12.683Z,8.90
2019-03-22T04:00:43.330Z,9.00
2019-03-22T04:03:13.958Z,9.00
2019-03-22T04:05:44.352Z,9.10
2019-03-22T04:08:14.706Z,9.00
2019-03-22T04:10:45.351Z,9.00
2019-03-22T04:13:16.112Z,9.00
2019-03-22T04:15:46.456Z,9.00
2019-03-22T04:18:16.824Z,9.10
2019-03-22T04:20:47.179Z,9.10
2019-03-22T04:23:17.904Z,9.10
2019-03-22T04:25:48.259Z,9.00
2019-03-22T04:28:19.465Z,9.00
2019-03-22T04:30:49.814Z,9.00
2019-03-22T04:33:20.524Z,9.00
2019-03-22T04:35:50.900Z,9.00
2019-03-22T04:38:21.587Z,8.90
2019-03-22T04:40:52.746Z,8.80
2019-03-22T04:43:23.100Z,8.90
2019-03-22T04:45:54.009Z,9.00
2019-03-22T04:48:31.133Z,9.00
2019-03-22T04:51:01.518Z,9.10
2019-03-22T04:53:39.539Z,9.20
2019-03-22T04:56:12.197Z,9.20
2019-03-22T04:58:42.949Z,9.30
2019-03-22T05:01:13.449Z,9.30
2019-03-22T05:03:44.857Z,9.30
2019-03-22T05:06:16.099Z,9.40
2019-03-22T05:08:46.584Z,9.30
2019-03-22T05:11:17.247Z,9.10
2019-03-22T05:13:47.674Z,9.00
2019-03-22T05:16:18.041Z,9.10
2019-03-22T05:18:49.171Z,9.10
2019-03-22T05:21:19.634Z,9.10
2019-03-22T05:23:50.251Z,9.10
2019-03-22T05:26:21.255Z,9.10
2019-03-22T05:28:52.095Z,9.10
2019-03-22T05:31:27.363Z,9.20
2019-03-22T05:33:58.095Z,9.20
2019-03-22T05:36:28.735Z,9.20
2019-03-22T05:38:59.443Z,9.20
2019-03-22T05:41:29.831Z,9.30
2019-03-22T05:44:00.533Z,9.30
2019-03-22T05:46:30.908Z,9.30
2019-03-22T05:49:01.241Z,9.30
2019-03-22T05:51:31.616Z,9.30
2019-03-22T05:54:01.964Z,9.40
2019-03-22T05:56:32.363Z,9.40
2019-03-22T05:59:03.053Z,9.40
2019-03-22T06:01:33.484Z,9.40
2019-03-22T06:04:03.903Z,9.40
2019-03-22T06:06:34.574Z,9.40
2019-03-22T06:09:08.653Z,9.40
2019-03-22T06:11:39.073Z,9.40
2019-03-22T06:14:09.724Z,9.40
2019-03-22T06:16:40.386Z,9.50
2019-03-22T06:19:11.094Z,9.50
2019-03-22T06:21:41.752Z,9.40
2019-03-22T06:24:12.156Z,9.50
2019-03-22T06:26:42.895Z,9.40
2019-03-22T06:29:13.242Z,9.40
2019-03-22T06:31:43.634Z,9.40
2019-03-22T06:34:14.011Z,9.50
2019-03-22T06:36:44.821Z,9.50
2019-03-22T06:39:15.574Z,9.50
2019-03-22T06:41:46.188Z,9.60
2019-03-22T06:44:16.653Z,9.70
2019-03-22T06:46:47.380Z,9.70
2019-03-22T06:49:17.755Z,9.70
2019-03-22T06:51:48.089Z,9.80
2019-03-22T06:54:30.680Z,9.80
2019-03-22T06:56:51.198Z,9.90
2019-03-22T06:59:21.560Z,9.90
2019-03-22T07:01:52.588Z,9.90
2019-03-22T07:04:22.948Z,9.90
2019-03-22T07:06:53.650Z,10.00
2019-03-22T07:09:24.288Z,10.10
2019-03-22T07:11:54.661Z,10.10
2019-03-22T07:14:25.494Z,10.10
2019-03-22T07:16:58.723Z,10.10
2019-03-22T07:19:28.767Z,10.10
2019-03-22T07:21:59.139Z,10.20
2019-03-22T07:24:29.496Z,10.20
2019-03-22T07:27:00.354Z,10.30
2019-03-22T07:29:30.720Z,10.30
2019-03-22T07:32:01.077Z,10.30
2019-03-22T07:34:31.460Z,10.30
2019-03-22T07:37:02.106Z,10.40
2019-03-22T07:39:32.459Z,10.40
2019-03-22T07:44:44.017Z,10.50
2019-03-22T07:47:14.638Z,10.60
2019-03-22T07:49:45.403Z,10.60
2019-03-22T07:52:16.034Z,10.70
2019-03-22T07:54:46.407Z,10.80
2019-03-22T07:57:17.427Z,10.80
2019-03-22T07:59:48.619Z,10.80
2019-03-22T08:02:19.766Z,10.90
2019-03-22T08:04:50.941Z,10.90
2019-03-22T08:07:21.694Z,11.00
2019-03-22T08:09:52.755Z,11.00
2019-03-22T08:12:23.302Z,11.10
2019-03-22T08:14:53.692Z,11.10
2019-03-22T08:17:24.352Z,11.10
2019-03-22T08:19:57.277Z,11.00
2019-03-22T08:22:27.155Z,11.10
2019-03-22T08:24:57.908Z,11.00
2019-03-22T08:27:28.607Z,11.00
2019-03-22T08:29:59.005Z,11.10
2019-03-22T08:32:29.448Z,11.10
2019-03-22T08:34:59.788Z,11.10
2019-03-22T08:37:30.567Z,11.20
2019-03-22T08:40:00.932Z,11.20
2019-03-22T08:42:31.318Z,11.20
2019-03-22T08:45:01.685Z,11.10
2019-03-22T08:47:34.280Z,11.20
2019-03-22T08:50:06.075Z,11.20
2019-03-22T08:52:36.759Z,11.20
2019-03-22T08:55:07.417Z,11.20
2019-03-22T08:57:37.785Z,11.20
2019-03-22T09:00:12.568Z,11.30
2019-03-22T09:02:42.966Z,11.30
2019-03-22T09:05:13.623Z,11.30
2019-03-22T09:07:44.002Z,11.40
2019-03-22T09:10:14.359Z,11.40
2019-03-22T09:12:44.780Z,11.40
2019-03-22T09:15:15.915Z,11.30
2019-03-22T09:17:47.454Z,11.20
2019-03-22T09:20:17.801Z,11.30
2019-03-22T09:22:48.191Z,11.40
2019-03-22T09:25:18.534Z,11.40
2019-03-22T09:27:49.317Z,11.50
2019-03-22T09:30:20.051Z,11.50
2019-03-22T09:32:50.703Z,11.60
2019-03-22T09:35:21.082Z,11.50
2019-03-22T09:37:51.820Z,11.50
2019-03-22T09:40:22.492Z,11.50
2019-03-22T09:42:53.293Z,11.60
2019-03-22T09:45:23.770Z,11.60
2019-03-22T09:47:54.081Z,11.60
2019-03-22T09:50:25.248Z,11.60
2019-03-22T09:52:55.637Z,11.40
2019-03-22T09:55:26.017Z,11.50
2019-03-22T09:57:56.496Z,11.50
2019-03-22T10:00:36.903Z,11.50
2019-03-22T10:03:07.631Z,11.50
2019-03-22T10:05:38.381Z,11.50
2019-03-22T10:08:08.804Z,11.60
2019-03-22T10:10:39.663Z,11.60
2019-03-22T10:13:10.034Z,11.70
2019-03-22T10:15:40.413Z,11.80
2019-03-22T10:18:11.106Z,11.90
2019-03-22T10:20:41.773Z,11.90
2019-03-22T10:23:12.126Z,12.00
2019-03-22T10:25:42.846Z,11.90
2019-03-22T10:28:13.747Z,11.80
2019-03-22T10:30:44.855Z,11.80
2019-03-22T10:33:22.478Z,11.70
2019-03-22T10:35:47.308Z,11.60
2019-03-22T10:38:30.719Z,11.70
2019-03-22T10:40:50.101Z,11.80
2019-03-22T10:43:20.472Z,11.70
2019-03-22T10:45:50.887Z,11.80
2019-03-22T10:48:21.406Z,11.80
2019-03-22T10:50:52.059Z,11.80
2019-03-22T10:53:22.418Z,11.70
2019-03-22T10:55:53.232Z,11.70
2019-03-22T10:58:23.984Z,11.80
2019-03-22T11:00:54.790Z,11.90
2019-03-22T11:03:25.895Z,11.80
2019-03-22T11:05:56.647Z,11.80
2019-03-22T11:08:27.035Z,11.80
2019-03-22T11:10:57.406Z,11.80
2019-03-22T11:13:28.115Z,11.90
2019-03-22T11:15:58.487Z,11.90
2019-03-22T11:18:37.014Z,12.00
2019-03-22T11:21:05.521Z,12.10
2019-03-22T11:23:33.748Z,12.10
2019-03-22T11:26:04.625Z,12.10
2019-03-22T11:28:35.281Z,12.10
2019-03-22T11:31:05.645Z,12.20
2019-03-22T11:33:36.020Z,12.20
2019-03-22T11:36:07.103Z,12.20
2019-03-22T11:38:37.477Z,12.30
2019-03-22T11:41:08.186Z,12.30
2019-03-22T11:43:38.616Z,12.40
2019-03-22T11:46:09.375Z,12.50
2019-03-22T11:48:39.728Z,12.60
2019-03-22T11:51:10.463Z,12.60
2019-03-22T11:53:40.856Z,12.50
2019-03-22T11:56:11.963Z,12.40
2019-03-22T11:58:42.366Z,12.50
2019-03-22T12:01:19.657Z,12.50
2019-03-22T12:03:44.769Z,12.50
2019-03-22T12:06:15.858Z,12.50
2019-03-22T12:08:46.249Z,12.60
2019-03-22T12:11:16.639Z,12.60
2019-03-22T12:13:47.364Z,12.70
2019-03-22T12:16:18.056Z,12.70
2019-03-22T12:18:50.380Z,12.60
2019-03-22T12:21:20.673Z,12.50
2019-03-22T12:23:51.725Z,12.60
2019-03-22T12:26:22.567Z,12.70
2019-03-22T12:28:52.955Z,12.80
2019-03-22T12:31:23.745Z,12.90
2019-03-22T12:33:54.086Z,12.90
2019-03-22T12:36:24.691Z,13.10
2019-03-22T12:39:14.867Z,13.10
2019-03-22T12:41:45.610Z,13.10
2019-03-22T12:44:16.355Z,13.10
2019-03-22T12:46:49.183Z,13.00
2019-03-22T12:49:19.485Z,13.00
2019-03-22T12:51:50.176Z,13.00
2019-03-22T12:54:20.541Z,13.10
2019-03-22T12:56:51.292Z,13.00
2019-03-22T12:59:22.039Z,13.00
2019-03-22T13:01:52.394Z,13.00
2019-03-22T13:04:22.765Z,13.10
2019-03-22T13:06:53.819Z,13.10
2019-03-22T13:09:24.194Z,13.10
2019-03-22T13:11:54.937Z,13.10
2019-03-22T13:14:25.321Z,13.10
2019-03-22T13:16:55.685Z,13.00
2019-03-22T13:19:26.494Z,12.90
2019-03-22T13:21:56.911Z,12.90
2019-03-22T13:24:27.327Z,12.90
2019-03-22T13:26:57.667Z,12.60
2019-03-22T13:29:28.014Z,12.70
2019-03-22T13:31:58.395Z,12.90
2019-03-22T13:34:28.740Z,13.00
2019-03-22T13:36:59.515Z,13.00
2019-03-22T13:39:30.255Z,13.10
2019-03-22T13:42:00.903Z,12.90
2019-03-22T13:44:31.556Z,12.80
2019-03-22T13:47:02.503Z,12.90
2019-03-22T13:49:32.872Z,12.80
2019-03-22T13:52:03.524Z,12.80
2019-03-22T13:54:33.948Z,12.70
2019-03-22T13:57:04.668Z,12.50
2019-03-22T13:59:35.356Z,12.30
2019-03-22T14:02:05.699Z,12.30
2019-03-22T14:04:36.091Z,12.40
2019-03-22T14:07:06.774Z,12.50
2019-03-22T14:09:37.480Z,12.60
2019-03-22T14:12:08.220Z,12.70
2019-03-22T14:14:38.620Z,12.80
2019-03-22T14:17:09.001Z,12.90
2019-03-22T14:19:39.731Z,12.90
2019-03-22T14:22:10.078Z,12.80
2019-03-22T14:24:40.556Z,12.40
2019-03-22T14:27:11.211Z,12.30
2019-03-22T14:29:42.132Z,12.40
2019-03-22T14:32:13.175Z,12.50
2019-03-22T14:34:44.321Z,12.60
2019-03-22T14:37:15.078Z,12.60
2019-03-22T14:39:45.815Z,12.70
2019-03-22T14:42:16.551Z,12.70
2019-03-22T14:44:47.283Z,12.70
2019-03-22T14:47:17.660Z,12.70
2019-03-22T14:49:48.029Z,12.60
2019-03-22T14:52:18.755Z,12.70
2019-03-22T14:54:49.220Z,12.50
2019-03-22T14:57:19.574Z,12.50
2019-03-22T14:59:58.649Z,12.40
2019-03-22T15:02:22.098Z,12.40
2019-03-22T15:04:52.469Z,12.50
2019-03-22T15:07:23.444Z,12.50
2019-03-22T15:09:54.118Z,12.60
2019-03-22T15:12:24.489Z,12.50
2019-03-22T15:15:02.661Z,12.50
2019-03-22T15:17:53.134Z,12.60
2019-03-22T15:20:41.316Z,12.70
2019-03-22T15:23:30.022Z,12.70
2019-03-22T15:26:04.907Z,12.80
2019-03-22T15:28:42.763Z,12.70
2019-03-22T15:31:18.654Z,12.70
2019-03-22T15:33:50.729Z,12.60
2019-03-22T15:36:41.467Z,12.70
2019-03-22T15:39:30.682Z,12.80
2019-03-22T15:42:01.343Z,12.70
2019-03-22T15:44:31.716Z,12.70
2019-03-22T15:47:02.417Z,12.70
2019-03-22T15:49:33.158Z,12.70
2019-03-22T15:52:03.637Z,12.60
2019-03-22T15:54:34.006Z,12.70
2019-03-22T15:57:04.403Z,12.50
2019-03-22T15:59:34.756Z,12.30
2019-03-22T16:02:05.795Z,12.40
2019-03-22T16:04:36.164Z,12.40
2019-03-22T16:07:07.457Z,12.50
2019-03-22T16:09:38.207Z,12.50
2019-03-22T16:12:08.852Z,12.50
2019-03-22T16:14:39.998Z,12.50
2019-03-22T16:17:10.615Z,12.60
2019-03-22T16:19:41.503Z,12.60
2019-03-22T16:22:12.183Z,12.70
2019-03-22T16:24:42.943Z,12.50
2019-03-22T16:27:13.314Z,12.50
2019-03-22T16:29:43.672Z,12.40
2019-03-22T16:32:14.416Z,12.20
2019-03-22T16:34:44.775Z,12.10
2019-03-22T16:37:15.151Z,12.00
2019-03-22T16:39:46.354Z,11.80
2019-03-22T16:42:16.741Z,11.60
2019-03-22T16:44:47.599Z,11.60
2019-03-22T16:47:17.960Z,11.50
2019-03-22T16:49:48.329Z,11.30
2019-03-22T16:52:19.114Z,11.20
2019-03-22T16:54:49.831Z,11.10
2019-03-22T16:57:20.554Z,11.10
2019-03-22T16:59:50.999Z,11.00
2019-03-22T17:02:21.733Z,11.00
2019-03-22T17:04:52.117Z,11.00
2019-03-22T17:07:22.750Z,10.90
2019-03-22T17:09:53.126Z,10.80
2019-03-22T17:12:23.858Z,10.70
2019-03-22T17:14:54.420Z,10.60
2019-03-22T17:17:25.052Z,10.60
2019-03-22T17:19:55.391Z,10.50
2019-03-22T17:22:25.746Z,10.50
2019-03-22T17:24:58.297Z,10.50
2019-03-22T17:27:28.605Z,10.40
2019-03-22T17:29:58.976Z,10.30
2019-03-22T17:32:29.686Z,10.20
2019-03-22T17:35:00.662Z,10.10
2019-03-22T17:37:31.455Z,10.00
2019-03-22T17:40:02.096Z,9.90
2019-03-22T17:42:32.431Z,9.80
2019-03-22T17:45:03.070Z,9.70
2019-03-22T17:47:34.361Z,9.60
2019-03-22T17:50:07.481Z,9.60
2019-03-22T17:52:38.109Z,9.50
2019-03-22T17:55:10.585Z,9.50
2019-03-22T17:57:41.235Z,9.40
2019-03-22T18:00:19.862Z,9.40
2019-03-22T18:02:50.204Z,9.30
2019-03-22T18:05:20.875Z,9.30
2019-03-22T18:07:51.356Z,9.20
2019-03-22T18:10:21.979Z,9.20
2019-03-22T18:12:52.616Z,9.20
2019-03-22T18:15:23.028Z,9.20
2019-03-22T18:17:53.372Z,9.20
2019-03-22T18:20:24.586Z,9.10
2019-03-22T18:22:54.969Z,9.10
2019-03-22T18:25:25.677Z,9.00
2019-03-22T18:27:56.071Z,9.00
2019-03-22T18:30:26.412Z,8.90
2019-03-22T18:32:56.767Z,8.90
2019-03-22T18:35:27.132Z,8.80
2019-03-22T18:37:57.485Z,8.80
2019-03-22T18:40:28.418Z,8.80
2019-03-22T18:42:59.275Z,8.80
2019-03-22T18:45:30.152Z,8.80
2019-03-22T18:48:00.576Z,8.80
2019-03-22T18:50:31.024Z,8.70
2019-03-22T18:53:01.884Z,8.70
2019-03-22T18:55:32.597Z,8.70
2019-03-22T18:58:03.303Z,8.70
2019-03-22T19:00:42.651Z,8.70
2019-03-22T19:03:13.326Z,8.60
2019-03-22T19:05:44.028Z,8.60
2019-03-22T19:08:14.856Z,8.60
2019-03-22T19:10:45.601Z,8.60
2019-03-22T19:13:15.957Z,8.60
2019-03-22T19:15:46.400Z,8.60
2019-03-22T19:18:17.464Z,8.50
2019-03-22T19:20:48.187Z,8.50
2019-03-22T19:23:18.849Z,8.50
2019-03-22T19:25:49.198Z,8.50
2019-03-22T19:28:19.571Z,8.50
2019-03-22T19:30:50.366Z,8.40
2019-03-22T19:33:21.052Z,8.40
2019-03-22T19:35:51.528Z,8.40
2019-03-22T19:38:21.900Z,8.40
2019-03-22T19:40:52.238Z,8.30
2019-03-22T19:43:23.328Z,8.30
2019-03-22T19:45:54.106Z,8.30
2019-03-22T19:48:24.474Z,8.30
2019-03-22T19:50:55.596Z,8.30
2019-03-22T19:53:25.990Z,8.20
2019-03-22T19:55:56.354Z,8.20
2019-03-22T19:58:26.690Z,8.20
2019-03-22T20:00:57.713Z,8.20
2019-03-22T20:03:28.340Z,8.20
2019-03-22T20:05:58.712Z,8.20
2019-03-22T20:08:29.751Z,8.10
2019-03-22T20:11:00.126Z,8.10
2019-03-22T20:13:30.506Z,8.10
2019-03-22T20:16:01.204Z,8.10
2019-03-22T20:18:31.575Z,8.00
2019-03-22T20:21:02.384Z,8.00
2019-03-22T20:23:33.390Z,8.00
2019-03-22T20:26:04.731Z,7.90
2019-03-22T20:28:35.324Z,7.90
2019-03-22T20:31:05.899Z,7.80
2019-03-22T20:33:36.718Z,7.80
2019-03-22T20:36:07.422Z,7.80
2019-03-22T20:38:37.786Z,7.80
2019-03-22T20:41:08.147Z,7.70
2019-03-22T20:43:38.711Z,7.70
2019-03-22T20:46:10.147Z,7.70
2019-03-22T20:48:40.652Z,7.60
2019-03-22T20:51:11.359Z,7.60
2019-03-22T20:53:41.787Z,7.60
2019-03-22T20:56:12.419Z,7.50
2019-03-22T20:58:43.099Z,7.50
2019-03-22T21:01:13.480Z,7.50
2019-03-22T21:03:43.841Z,7.50
2019-03-22T21:06:14.209Z,7.40
2019-03-22T21:08:44.535Z,7.40
2019-03-22T21:11:15.341Z,7.40
2019-03-22T21:13:45.713Z,7.40
2019-03-22T21:16:16.104Z,7.30
2019-03-22T21:18:46.941Z,7.30
2019-03-22T21:21:17.304Z,7.30
2019-03-22T21:23:47.670Z,7.30
2019-03-22T21:26:18.007Z,7.30
2019-03-22T21:28:48.710Z,7.30
2019-03-22T21:31:19.238Z,7.20
2019-03-22T21:33:49.873Z,7.20
2019-03-22T21:36:20.213Z,7.20
2019-03-22T21:38:50.861Z,7.20
2019-03-22T21:41:21.225Z,7.20
2019-03-22T21:43:51.993Z,7.20
2019-03-22T21:46:23.163Z,7.20
2019-03-22T21:48:54.053Z,7.20
2019-03-22T21:51:24.686Z,7.20
2019-03-22T21:53:55.053Z,7.20
2019-03-22T21:56:25.406Z,7.20
2019-03-22T21:58:55.772Z,7.10
2019-03-22T22:01:26.531Z,7.10
2019-03-22T22:03:57.016Z,7.00
2019-03-22T22:06:27.652Z,7.00
2019-03-22T22:08:58.036Z,6.90
2019-03-22T22:11:28.796Z,6.90
2019-03-22T22:13:59.237Z,6.90
2019-03-22T22:16:29.638Z,6.80
2019-03-22T22:19:00.640Z,6.80
2019-03-22T22:21:31.277Z,6.80
2019-03-22T22:24:02.039Z,6.80
2019-03-22T22:26:32.892Z,6.70
2019-03-22T22:29:03.562Z,6.70
2019-03-22T22:31:33.982Z,6.70
2019-03-22T22:34:04.711Z,6.70
2019-03-22T22:36:35.044Z,6.70
2019-03-22T22:39:07.021Z,6.70
2019-03-22T22:41:37.390Z,6.70
2019-03-22T22:44:07.725Z,6.60
2019-03-22T22:46:38.140Z,6.60
2019-03-22T22:49:08.872Z,6.60
2019-03-22T22:51:40.455Z,6.60
2019-03-22T22:54:11.211Z,6.50
2019-03-22T22:56:41.813Z,6.50
2019-03-22T22:59:12.749Z,6.50
2019-03-22T23:01:44.051Z,6.40
2019-03-22T23:04:14.712Z,6.40
2019-03-22T23:06:45.163Z,6.40
2019-03-22T23:09:16.367Z,6.40
2019-03-22T23:11:47.327Z,6.40
2019-03-22T23:14:17.681Z,6.30
2019-03-22T23:16:48.070Z,6.30
2019-03-22T23:19:18.847Z,6.30
2019-03-22T23:21:49.546Z,6.30
2019-03-22T23:24:19.928Z,6.30
2019-03-22T23:26:50.522Z,6.20
2019-03-22T23:29:20.880Z,6.20
2019-03-22T23:31:51.274Z,6.20
2019-03-22T23:34:22.288Z,6.20
2019-03-22T23:36:52.917Z,6.10
2019-03-22T23:39:23.565Z,6.00
2019-03-22T23:41:54.210Z,6.00
2019-03-22T23:44:24.851Z,6.00
2019-03-22T23:46:55.281Z,6.00
2019-03-22T23:49:25.619Z,5.90
2019-03-22T23:51:55.976Z,5.90
2019-03-22T23:54:26.798Z,5.90
2019-03-22T23:56:57.412Z,5.90
2019-03-22T23:59:47.257Z,5.90
